createdAt,value
2023-02-25T00:00:19.159Z,965.83
2023-02-25T00:00:49.943Z,965.83
2023-02-25T00:01:22.259Z,965.83
2023-02-25T00:02:03.413Z,965.83
2023-02-25T00:02:25.886Z,965.83
2023-02-25T00:02:57.901Z,965.73
2023-02-25T00:03:29.969Z,965.73
2023-02-25T00:04:02.300Z,965.93
2023-02-25T00:04:33.768Z,965.93
2023-02-25T00:05:06.211Z,966.03
2023-02-25T00:05:22.241Z,966.03
2023-02-25T00:05:54.131Z,965.63
2023-02-25T00:06:38.054Z,965.63
2023-02-25T00:07:09.775Z,965.93
2023-02-25T00:07:41.938Z,965.83
2023-02-25T00:08:13.693Z,965.83
2023-02-25T00:08:45.974Z,965.73
2023-02-25T00:09:17.786Z,965.73
2023-02-25T00:09:49.729Z,966.03
2023-02-25T00:10:06.438Z,966.03
2023-02-25T00:10:49.565Z,965.93
2023-02-25T00:11:21.961Z,965.93
2023-02-25T00:11:53.468Z,966.03
2023-02-25T00:12:25.622Z,966.03
2023-02-25T00:13:08.796Z,965.93
2023-02-25T00:13:29.467Z,965.93
2023-02-25T00:14:01.956Z,965.93
2023-02-25T00:14:33.519Z,965.93
2023-02-25T00:15:06.800Z,966.03
2023-02-25T00:15:37.563Z,966.03
2023-02-25T00:16:09.309Z,965.83
2023-02-25T00:16:41.706Z,965.73
2023-02-25T00:17:13.486Z,965.73
2023-02-25T00:17:45.404Z,966.03
2023-02-25T00:18:17.254Z,966.03
2023-02-25T00:18:49.357Z,966.03
2023-02-25T00:19:21.486Z,966.03
2023-02-25T00:19:53.352Z,965.93
2023-02-25T00:20:25.484Z,965.93
2023-02-25T00:20:57.176Z,965.73
2023-02-25T00:21:29.150Z,965.73
2023-02-25T00:22:01.597Z,966.03
2023-02-25T00:22:33.235Z,966.03
2023-02-25T00:23:05.257Z,965.93
2023-02-25T00:23:37.249Z,965.93
2023-02-25T00:24:16.527Z,965.93
2023-02-25T00:24:40.993Z,965.93
2023-02-25T00:25:13.343Z,965.83
2023-02-25T00:25:45.131Z,965.63
2023-02-25T00:26:17.025Z,965.63
2023-02-25T00:26:49.029Z,965.83
2023-02-25T00:27:21.084Z,965.83
2023-02-25T00:27:37.039Z,965.83
2023-02-25T00:28:08.818Z,965.73
2023-02-25T00:28:52.909Z,965.73
2023-02-25T00:29:24.772Z,965.73
2023-02-25T00:29:56.713Z,965.83
2023-02-25T00:30:29.135Z,965.83
2023-02-25T00:31:01.052Z,965.63
2023-02-25T00:31:32.926Z,965.63
2023-02-25T00:32:05.123Z,965.73
2023-02-25T00:32:21.169Z,965.73
2023-02-25T00:33:05.013Z,965.63
2023-02-25T00:33:36.827Z,965.63
2023-02-25T00:34:08.569Z,965.73
2023-02-25T00:34:40.600Z,965.73
2023-02-25T00:35:13.040Z,965.83
2023-02-25T00:35:44.642Z,965.63
2023-02-25T00:36:16.537Z,965.63
2023-02-25T00:36:48.720Z,965.53
2023-02-25T00:37:20.739Z,965.53
2023-02-25T00:37:54.310Z,965.63
2023-02-25T00:38:24.415Z,965.63
2023-02-25T00:38:56.437Z,965.73
2023-02-25T00:39:28.466Z,965.73
2023-02-25T00:40:00.795Z,965.73
2023-02-25T00:40:32.430Z,965.73
2023-02-25T00:41:04.764Z,965.63
2023-02-25T00:41:20.603Z,965.63
2023-02-25T00:41:52.973Z,965.73
2023-02-25T00:42:36.342Z,965.73
2023-02-25T00:43:08.149Z,965.83
2023-02-25T00:43:40.178Z,965.83
2023-02-25T00:44:12.320Z,965.93
2023-02-25T00:44:44.154Z,965.93
2023-02-25T00:45:16.967Z,965.93
2023-02-25T00:45:48.157Z,965.93
2023-02-25T00:46:20.327Z,965.93
2023-02-25T00:46:52.443Z,965.83
2023-02-25T00:47:24.014Z,965.83
2023-02-25T00:47:56.040Z,965.93
2023-02-25T00:48:28.048Z,965.93
2023-02-25T00:49:00.072Z,966.13
2023-02-25T00:49:32.819Z,966.13
2023-02-25T00:50:04.629Z,965.83
2023-02-25T00:50:19.931Z,965.83
2023-02-25T00:51:04.502Z,965.93
2023-02-25T00:51:35.935Z,965.93
2023-02-25T00:52:07.753Z,965.73
2023-02-25T00:52:40.029Z,965.73
2023-02-25T00:53:12.106Z,965.73
2023-02-25T00:53:43.871Z,965.93
2023-02-25T00:54:15.790Z,965.93
2023-02-25T00:54:47.764Z,965.83
2023-02-25T00:55:20.073Z,965.83
2023-02-25T00:55:52.064Z,965.73
2023-02-25T00:56:24.122Z,965.73
2023-02-25T00:56:55.728Z,965.83
2023-02-25T00:57:27.604Z,965.83
2023-02-25T00:57:59.591Z,965.73
2023-02-25T00:58:31.851Z,965.73
2023-02-25T00:59:04.456Z,965.83
2023-02-25T00:59:19.838Z,965.83
2023-02-25T00:59:51.851Z,965.83
2023-02-25T01:00:50.101Z,965.83
2023-02-25T01:01:07.531Z,965.73
2023-02-25T01:01:39.530Z,965.73
2023-02-25T01:02:11.405Z,965.83
2023-02-25T01:02:43.483Z,965.93
2023-02-25T01:03:15.341Z,965.93
2023-02-25T01:03:47.225Z,966.03
2023-02-25T01:04:19.362Z,966.03
2023-02-25T01:04:51.595Z,965.93
2023-02-25T01:05:23.499Z,965.93
2023-02-25T01:05:55.218Z,965.93
2023-02-25T01:06:27.311Z,965.93
2023-02-25T01:06:59.200Z,965.73
2023-02-25T01:07:31.371Z,965.73
2023-02-25T01:08:03.886Z,966.03
2023-02-25T01:08:35.162Z,966.03
2023-02-25T01:09:07.195Z,966.13
2023-02-25T01:09:39.120Z,966.13
2023-02-25T01:10:11.520Z,966.03
2023-02-25T01:10:43.109Z,966.13
2023-02-25T01:11:15.151Z,966.13
2023-02-25T01:11:46.914Z,966.13
2023-02-25T01:12:03.728Z,966.13
2023-02-25T01:12:35.055Z,966.13
2023-02-25T01:13:19.236Z,966.03
2023-02-25T01:13:51.468Z,965.93
2023-02-25T01:14:23.026Z,965.93
2023-02-25T01:14:55.005Z,966.13
2023-02-25T01:15:27.444Z,966.13
2023-02-25T01:15:59.069Z,966.24
2023-02-25T01:16:31.242Z,966.24
2023-02-25T01:17:04.042Z,966.24
2023-02-25T01:17:19.102Z,966.24
2023-02-25T01:17:50.742Z,965.93
2023-02-25T01:18:34.822Z,965.93
2023-02-25T01:19:06.695Z,966.24
2023-02-25T01:19:38.594Z,966.24
2023-02-25T01:20:10.961Z,965.93
2023-02-25T01:20:42.757Z,966.13
2023-02-25T01:21:14.491Z,966.13
2023-02-25T01:21:46.616Z,965.83
2023-02-25T01:22:03.225Z,965.83
2023-02-25T01:22:46.656Z,966.24
2023-02-25T01:23:18.820Z,966.24
2023-02-25T01:23:50.774Z,966.03
2023-02-25T01:24:22.736Z,966.03
2023-02-25T01:24:54.674Z,965.93
2023-02-25T01:25:26.748Z,965.93
2023-02-25T01:25:58.489Z,965.93
2023-02-25T01:26:30.727Z,965.93
2023-02-25T01:27:03.414Z,965.93
2023-02-25T01:27:34.568Z,965.93
2023-02-25T01:28:06.315Z,966.03
2023-02-25T01:28:38.319Z,966.03
2023-02-25T01:29:10.457Z,965.83
2023-02-25T01:29:42.437Z,966.13
2023-02-25T01:30:14.832Z,966.13
2023-02-25T01:30:46.164Z,966.24
2023-02-25T01:31:03.403Z,966.24
2023-02-25T01:31:34.429Z,966.24
2023-02-25T01:31:50.542Z,966.13
2023-02-25T01:32:22.540Z,966.13
2023-02-25T01:32:54.277Z,966.03
2023-02-25T01:33:26.221Z,966.03
2023-02-25T01:33:58.237Z,966.24
2023-02-25T01:34:30.119Z,966.24
2023-02-25T01:35:03.596Z,966.44
2023-02-25T01:35:34.121Z,966.44
2023-02-25T01:36:06.085Z,966.13
2023-02-25T01:36:37.845Z,966.13
2023-02-25T01:37:10.022Z,966.51
2023-02-25T01:37:42.123Z,966.44
2023-02-25T01:38:13.948Z,966.44
2023-02-25T01:38:45.874Z,966.34
2023-02-25T01:39:03.470Z,966.34
2023-02-25T01:39:45.846Z,966.51
2023-02-25T01:40:18.154Z,966.51
2023-02-25T01:40:49.946Z,966.61
2023-02-25T01:41:21.822Z,966.61
2023-02-25T01:41:53.734Z,966.34
2023-02-25T01:42:25.867Z,966.34
2023-02-25T01:42:57.872Z,966.24
2023-02-25T01:43:29.528Z,966.24
2023-02-25T01:44:02.260Z,966.51
2023-02-25T01:44:33.796Z,966.51
2023-02-25T01:45:06.591Z,966.44
2023-02-25T01:45:37.643Z,966.44
2023-02-25T01:46:09.761Z,966.24
2023-02-25T01:46:41.866Z,966.44
2023-02-25T01:47:13.605Z,966.44
2023-02-25T01:47:45.421Z,966.44
2023-02-25T01:48:17.448Z,966.44
2023-02-25T01:48:49.529Z,966.34
2023-02-25T01:49:21.779Z,966.34
2023-02-25T01:49:53.325Z,966.34
2023-02-25T01:50:25.689Z,966.34
2023-02-25T01:50:57.484Z,966.34
2023-02-25T01:51:29.398Z,966.34
2023-02-25T01:52:01.790Z,966.44
2023-02-25T01:52:17.355Z,966.44
2023-02-25T01:52:49.456Z,966.34
2023-02-25T01:53:33.289Z,966.34
2023-02-25T01:54:05.609Z,966.13
2023-02-25T01:54:37.128Z,966.13
2023-02-25T01:55:09.407Z,966.03
2023-02-25T01:55:41.339Z,966.03
2023-02-25T01:56:13.277Z,966.03
2023-02-25T01:56:44.989Z,966.03
2023-02-25T01:57:01.731Z,966.03
2023-02-25T01:57:45.003Z,966.13
2023-02-25T01:58:17.140Z,966.13
2023-02-25T01:58:49.136Z,966.03
2023-02-25T01:59:20.973Z,966.03
2023-02-25T01:59:53.082Z,966.34
2023-02-25T02:00:25.525Z,966.34
2023-02-25T02:00:57.070Z,966.44
2023-02-25T02:01:28.909Z,966.44
2023-02-25T02:02:01.353Z,966.44
2023-02-25T02:02:17.151Z,966.44
2023-02-25T02:03:01.177Z,966.24
2023-02-25T02:03:32.900Z,966.24
2023-02-25T02:04:05.234Z,966.03
2023-02-25T02:04:36.820Z,966.03
2023-02-25T02:05:09.134Z,966.24
2023-02-25T02:05:41.018Z,966.24
2023-02-25T02:06:12.633Z,966.34
2023-02-25T02:06:44.667Z,966.34
2023-02-25T02:07:16.664Z,966.34
2023-02-25T02:07:48.841Z,966.34
2023-02-25T02:08:20.591Z,966.34
2023-02-25T02:08:52.778Z,966.03
2023-02-25T02:09:24.664Z,966.03
2023-02-25T02:09:56.614Z,966.13
2023-02-25T02:10:28.699Z,966.13
2023-02-25T02:11:00.783Z,966.13
2023-02-25T02:11:16.618Z,966.13
2023-02-25T02:11:48.537Z,966.13
2023-02-25T02:12:32.714Z,966.13
2023-02-25T02:13:05.131Z,966.44
2023-02-25T02:13:36.539Z,966.44
2023-02-25T02:14:08.743Z,966.34
2023-02-25T02:14:40.737Z,966.34
2023-02-25T02:15:13.806Z,966.03
2023-02-25T02:15:44.494Z,966.34
2023-02-25T02:16:16.640Z,966.34
2023-02-25T02:16:48.561Z,966.24
2023-02-25T02:17:20.475Z,966.24
2023-02-25T02:17:52.700Z,966.24
2023-02-25T02:18:24.429Z,966.24
2023-02-25T02:18:56.544Z,966.03
2023-02-25T02:19:28.224Z,966.03
2023-02-25T02:20:00.887Z,966.03
2023-02-25T02:20:16.484Z,966.03
2023-02-25T02:21:00.576Z,966.34
2023-02-25T02:21:32.466Z,966.34
2023-02-25T02:22:04.531Z,966.34
2023-02-25T02:22:35.946Z,966.34
2023-02-25T02:23:08.115Z,966.13
2023-02-25T02:23:40.161Z,966.13
2023-02-25T02:24:12.015Z,966.13
2023-02-25T02:24:43.946Z,966.44
2023-02-25T02:25:16.118Z,966.44
2023-02-25T02:25:47.916Z,966.44
2023-02-25T02:26:20.148Z,966.44
2023-02-25T02:26:52.009Z,966.44
2023-02-25T02:27:23.887Z,966.44
2023-02-25T02:27:55.906Z,966.44
2023-02-25T02:28:27.780Z,966.44
2023-02-25T02:28:59.737Z,966.24
2023-02-25T02:29:15.912Z,966.24
2023-02-25T02:29:47.668Z,966.34
2023-02-25T02:30:33.655Z,966.34
2023-02-25T02:31:04.469Z,966.44
2023-02-25T02:31:35.848Z,966.44
2023-02-25T02:32:07.999Z,966.44
2023-02-25T02:32:40.092Z,966.44
2023-02-25T02:33:11.787Z,966.44
2023-02-25T02:33:43.683Z,966.34
2023-02-25T02:34:15.660Z,966.34
2023-02-25T02:34:47.793Z,966.34
2023-02-25T02:35:19.928Z,966.34
2023-02-25T02:35:52.356Z,966.44
2023-02-25T02:36:23.984Z,966.44
2023-02-25T02:36:55.674Z,966.44
2023-02-25T02:37:27.435Z,966.44
2023-02-25T02:37:59.472Z,966.51
2023-02-25T02:38:31.941Z,966.51
2023-02-25T02:39:04.401Z,966.61
2023-02-25T02:39:35.472Z,966.61
2023-02-25T02:40:07.755Z,966.44
2023-02-25T02:40:39.334Z,966.44
2023-02-25T02:41:11.567Z,966.51
2023-02-25T02:41:43.305Z,966.51
2023-02-25T02:42:15.243Z,966.51
2023-02-25T02:42:47.298Z,966.34
2023-02-25T02:43:19.393Z,966.34
2023-02-25T02:43:51.170Z,966.24
2023-02-25T02:44:23.123Z,966.24
2023-02-25T02:44:55.289Z,966.44
2023-02-25T02:45:27.669Z,966.44
2023-02-25T02:45:59.277Z,966.03
2023-02-25T02:46:15.237Z,966.03
2023-02-25T02:46:46.998Z,966.24
2023-02-25T02:47:31.226Z,966.24
2023-02-25T02:48:03.612Z,966.24
2023-02-25T02:48:35.007Z,966.24
2023-02-25T02:49:06.945Z,966.51
2023-02-25T02:49:39.075Z,966.51
2023-02-25T02:50:11.448Z,966.13
2023-02-25T02:50:42.828Z,966.24
2023-02-25T02:50:59.261Z,966.24
2023-02-25T02:51:42.930Z,966.51
2023-02-25T02:52:14.958Z,966.51
2023-02-25T02:52:46.951Z,966.24
2023-02-25T02:53:18.840Z,966.24
2023-02-25T02:53:50.870Z,966.24
2023-02-25T02:54:22.827Z,966.24
2023-02-25T02:54:54.671Z,966.34
2023-02-25T02:55:26.898Z,966.34
2023-02-25T02:55:58.796Z,966.13
2023-02-25T02:56:31.040Z,966.13
2023-02-25T02:57:03.538Z,966.24
2023-02-25T02:57:34.719Z,966.24
2023-02-25T02:58:06.583Z,966.34
2023-02-25T02:58:38.745Z,966.34
2023-02-25T02:59:10.740Z,966.51
2023-02-25T02:59:42.616Z,966.24
2023-02-25T03:00:15.445Z,966.24
2023-02-25T03:00:46.623Z,966.51
2023-02-25T03:01:18.529Z,966.51
2023-02-25T03:01:50.481Z,966.51
2023-02-25T03:02:22.553Z,966.51
2023-02-25T03:02:54.310Z,966.51
2023-02-25T03:03:26.392Z,966.51
2023-02-25T03:03:58.287Z,966.44
2023-02-25T03:04:30.280Z,966.44
2023-02-25T03:05:03.960Z,966.51
2023-02-25T03:05:34.407Z,966.51
2023-02-25T03:06:06.121Z,966.51
2023-02-25T03:06:38.296Z,966.51
2023-02-25T03:07:10.473Z,966.44
2023-02-25T03:07:42.196Z,966.51
2023-02-25T03:08:14.068Z,966.51
2023-02-25T03:08:30.220Z,966.51
2023-02-25T03:09:02.869Z,966.61
2023-02-25T03:09:46.084Z,966.44
2023-02-25T03:10:18.289Z,966.44
2023-02-25T03:10:50.163Z,966.61
2023-02-25T03:11:22.123Z,966.61
2023-02-25T03:11:54.041Z,966.51
2023-02-25T03:12:26.197Z,966.51
2023-02-25T03:12:57.869Z,966.81
2023-02-25T03:13:14.140Z,966.81
2023-02-25T03:13:57.885Z,966.34
2023-02-25T03:14:29.913Z,966.34
2023-02-25T03:15:05.200Z,966.51
2023-02-25T03:15:33.769Z,966.51
2023-02-25T03:16:05.888Z,966.44
2023-02-25T03:16:37.929Z,966.44
2023-02-25T03:17:09.860Z,966.44
2023-02-25T03:17:41.846Z,966.61
2023-02-25T03:18:13.805Z,966.61
2023-02-25T03:18:45.810Z,966.61
2023-02-25T03:19:17.786Z,966.61
2023-02-25T03:19:49.669Z,966.51
2023-02-25T03:20:21.954Z,966.51
2023-02-25T03:20:53.701Z,966.51
2023-02-25T03:21:25.855Z,966.51
2023-02-25T03:21:57.526Z,966.44
2023-02-25T03:22:13.617Z,966.44
2023-02-25T03:22:45.450Z,966.44
2023-02-25T03:23:29.655Z,966.44
2023-02-25T03:24:02.126Z,966.71
2023-02-25T03:24:33.431Z,966.71
2023-02-25T03:25:05.720Z,966.44
2023-02-25T03:25:37.626Z,966.44
2023-02-25T03:26:09.536Z,966.61
2023-02-25T03:26:41.522Z,966.71
2023-02-25T03:27:13.315Z,966.71
2023-02-25T03:27:45.430Z,966.71
2023-02-25T03:28:17.422Z,966.71
2023-02-25T03:28:49.310Z,966.51
2023-02-25T03:29:21.535Z,966.51
2023-02-25T03:29:53.415Z,966.51
2023-02-25T03:30:25.848Z,966.51
2023-02-25T03:30:57.351Z,966.51
2023-02-25T03:31:13.353Z,966.51
2023-02-25T03:31:58.033Z,966.71
2023-02-25T03:32:29.449Z,966.71
2023-02-25T03:33:01.473Z,966.81
2023-02-25T03:33:33.058Z,966.81
2023-02-25T03:34:05.265Z,966.71
2023-02-25T03:34:37.024Z,966.71
2023-02-25T03:35:09.281Z,966.71
2023-02-25T03:35:41.094Z,966.71
2023-02-25T03:36:13.051Z,966.51
2023-02-25T03:36:45.097Z,966.71
2023-02-25T03:37:17.050Z,966.71
2023-02-25T03:37:48.861Z,966.44
2023-02-25T03:38:20.990Z,966.44
2023-02-25T03:38:52.976Z,966.81
2023-02-25T03:39:09.858Z,966.81
2023-02-25T03:39:42.099Z,966.61
2023-02-25T03:40:21.031Z,966.61
2023-02-25T03:40:52.852Z,966.51
2023-02-25T03:41:24.752Z,966.51
2023-02-25T03:41:56.846Z,966.71
2023-02-25T03:42:28.703Z,966.71
2023-02-25T03:42:44.814Z,966.71
2023-02-25T03:43:28.734Z,966.71
2023-02-25T03:44:00.993Z,966.71
2023-02-25T03:44:33.027Z,966.71
2023-02-25T03:45:06.592Z,966.81
2023-02-25T03:45:36.684Z,966.81
2023-02-25T03:46:08.810Z,966.61
2023-02-25T03:46:40.729Z,966.61
2023-02-25T03:47:12.773Z,967.02
2023-02-25T03:47:28.744Z,967.02
2023-02-25T03:48:00.789Z,966.61
2023-02-25T03:48:44.539Z,966.61
2023-02-25T03:49:16.491Z,966.61
2023-02-25T03:49:48.414Z,966.81
2023-02-25T03:50:20.737Z,966.81
2023-02-25T03:50:52.470Z,966.91
2023-02-25T03:51:24.468Z,966.91
2023-02-25T03:51:56.293Z,966.61
2023-02-25T03:52:12.441Z,966.61
2023-02-25T03:52:56.436Z,966.91
2023-02-25T03:53:28.355Z,966.91
2023-02-25T03:54:00.520Z,966.61
2023-02-25T03:54:32.311Z,966.61
2023-02-25T03:55:04.915Z,966.81
2023-02-25T03:55:36.301Z,966.81
2023-02-25T03:56:08.415Z,966.61
2023-02-25T03:56:40.097Z,966.61
2023-02-25T03:57:12.294Z,966.91
2023-02-25T03:57:44.260Z,967.02
2023-02-25T03:58:16.174Z,967.02
2023-02-25T03:58:48.112Z,966.71
2023-02-25T03:59:20.208Z,966.71
2023-02-25T03:59:52.331Z,966.81
2023-02-25T04:00:24.457Z,966.81
2023-02-25T04:00:56.016Z,966.81
2023-02-25T04:01:12.324Z,966.81
2023-02-25T04:01:44.108Z,967.02
2023-02-25T04:02:27.969Z,967.02
2023-02-25T04:02:59.900Z,966.91
2023-02-25T04:03:31.907Z,966.91
2023-02-25T04:04:05.571Z,966.71
2023-02-25T04:04:35.909Z,966.71
2023-02-25T04:05:08.184Z,967.02
2023-02-25T04:05:39.679Z,967.02
2023-02-25T04:05:56.124Z,967.02
2023-02-25T04:06:39.743Z,967.02
2023-02-25T04:07:11.926Z,966.61
2023-02-25T04:07:43.853Z,966.91
2023-02-25T04:08:15.652Z,966.91
2023-02-25T04:08:47.775Z,966.91
2023-02-25T04:09:20.029Z,966.91
2023-02-25T04:09:51.710Z,966.81
2023-02-25T04:10:23.928Z,966.81
2023-02-25T04:10:55.663Z,966.91
2023-02-25T04:11:27.709Z,966.91
2023-02-25T04:11:59.435Z,967.02
2023-02-25T04:12:31.493Z,967.02
2023-02-25T04:13:04.239Z,966.91
2023-02-25T04:13:35.561Z,966.91
2023-02-25T04:14:07.340Z,967.02
2023-02-25T04:14:39.570Z,967.02
2023-02-25T04:15:12.947Z,967.12
2023-02-25T04:15:43.556Z,966.91
2023-02-25T04:16:15.606Z,966.91
2023-02-25T04:16:47.269Z,967.02
2023-02-25T04:17:19.284Z,967.02
2023-02-25T04:17:51.647Z,967.02
2023-02-25T04:18:23.245Z,967.02
2023-02-25T04:18:55.216Z,967.22
2023-02-25T04:19:11.623Z,967.22
2023-02-25T04:19:43.141Z,966.91
2023-02-25T04:20:27.490Z,966.91
2023-02-25T04:20:59.219Z,966.91
2023-02-25T04:21:31.081Z,966.91
2023-02-25T04:22:03.989Z,967.12
2023-02-25T04:22:35.165Z,967.12
2023-02-25T04:23:06.885Z,967.02
2023-02-25T04:23:39.046Z,967.02
2023-02-25T04:24:11.119Z,967.12
2023-02-25T04:24:43.084Z,967.12
2023-02-25T04:25:15.267Z,967.12
2023-02-25T04:25:46.853Z,967.02
2023-02-25T04:26:19.093Z,967.02
2023-02-25T04:26:51.092Z,967.02
2023-02-25T04:27:23.059Z,967.02
2023-02-25T04:27:54.775Z,967.12
2023-02-25T04:28:11.016Z,967.12
2023-02-25T04:28:54.802Z,967.12
2023-02-25T04:29:26.936Z,967.12
2023-02-25T04:29:58.856Z,966.91
2023-02-25T04:30:33.368Z,966.91
2023-02-25T04:31:03.987Z,967.12
2023-02-25T04:31:34.983Z,967.12
2023-02-25T04:32:06.916Z,966.81
2023-02-25T04:32:38.705Z,966.81
2023-02-25T04:32:54.733Z,967.22
2023-02-25T04:33:26.578Z,967.22
2023-02-25T04:33:42.804Z,967.12
2023-02-25T04:34:14.506Z,967.12
2023-02-25T04:34:46.644Z,967.02
2023-02-25T04:35:18.876Z,967.02
2023-02-25T04:35:50.581Z,967.02
2023-02-25T04:36:22.698Z,967.02
2023-02-25T04:36:54.542Z,967.22
2023-02-25T04:37:10.500Z,967.22
2023-02-25T04:37:42.478Z,967.12
2023-02-25T04:38:26.608Z,967.12
2023-02-25T04:38:58.266Z,967.02
2023-02-25T04:39:30.337Z,967.02
2023-02-25T04:40:03.416Z,967.02
2023-02-25T04:40:34.281Z,967.02
2023-02-25T04:41:06.222Z,966.91
2023-02-25T04:41:38.386Z,966.91
2023-02-25T04:42:10.310Z,967.02
2023-02-25T04:42:42.537Z,966.91
2023-02-25T04:43:14.001Z,966.91
2023-02-25T04:43:46.082Z,967.12
2023-02-25T04:44:18.166Z,967.12
2023-02-25T04:44:50.438Z,967.02
2023-02-25T04:45:22.448Z,967.02
2023-02-25T04:45:54.205Z,967.12
2023-02-25T04:46:10.315Z,967.12
2023-02-25T04:46:54.197Z,967.12
2023-02-25T04:47:26.155Z,967.12
2023-02-25T04:47:57.930Z,967.02
2023-02-25T04:48:29.935Z,967.02
2023-02-25T04:49:02.642Z,967.12
2023-02-25T04:49:34.052Z,967.12
2023-02-25T04:50:06.102Z,966.81
2023-02-25T04:50:37.918Z,966.81
2023-02-25T04:50:54.330Z,967.12
2023-02-25T04:51:25.878Z,967.12
2023-02-25T04:51:41.991Z,967.12
2023-02-25T04:52:13.911Z,967.12
2023-02-25T04:52:45.801Z,967.02
2023-02-25T04:53:17.830Z,967.02
2023-02-25T04:53:49.916Z,967.02
2023-02-25T04:54:21.840Z,967.02
2023-02-25T04:54:53.720Z,966.81
2023-02-25T04:55:10.068Z,966.81
2023-02-25T04:55:41.795Z,967.02
2023-02-25T04:56:25.888Z,967.02
2023-02-25T04:56:57.725Z,966.81
2023-02-25T04:57:29.608Z,966.81
2023-02-25T04:58:02.242Z,966.91
2023-02-25T04:58:33.917Z,966.91
2023-02-25T04:59:05.688Z,967.12
2023-02-25T04:59:37.497Z,967.12
2023-02-25T05:00:11.806Z,967.02
2023-02-25T05:00:42.017Z,966.91
2023-02-25T05:01:13.372Z,966.91
2023-02-25T05:01:45.524Z,967.22
2023-02-25T05:02:17.447Z,967.22
2023-02-25T05:02:49.476Z,967.22
2023-02-25T05:03:21.718Z,967.22
2023-02-25T05:03:53.371Z,967.02
2023-02-25T05:04:25.438Z,967.02
2023-02-25T05:04:57.554Z,967.02
2023-02-25T05:05:29.503Z,967.02
2023-02-25T05:06:01.565Z,967.22
2023-02-25T05:06:33.355Z,967.22
2023-02-25T05:07:05.528Z,967.02
2023-02-25T05:07:37.083Z,967.02
2023-02-25T05:08:09.215Z,967.22
2023-02-25T05:08:41.431Z,967.22
2023-02-25T05:09:13.279Z,967.12
2023-02-25T05:09:45.257Z,967.02
2023-02-25T05:10:17.360Z,967.02
2023-02-25T05:10:49.297Z,967.22
2023-02-25T05:11:21.406Z,967.22
2023-02-25T05:11:53.000Z,967.22
2023-02-25T05:12:09.234Z,967.22
2023-02-25T05:12:41.204Z,967.22
2023-02-25T05:13:25.074Z,967.42
2023-02-25T05:13:56.974Z,967.12
2023-02-25T05:14:30.801Z,967.12
2023-02-25T05:15:02.611Z,967.02
2023-02-25T05:15:33.006Z,967.02
2023-02-25T05:16:04.998Z,967.12
2023-02-25T05:16:36.822Z,967.12
2023-02-25T05:16:52.904Z,967.12
2023-02-25T05:17:36.758Z,967.12
2023-02-25T05:18:08.995Z,967.22
2023-02-25T05:18:41.065Z,967.22
2023-02-25T05:19:12.925Z,967.42
2023-02-25T05:19:44.732Z,967.32
2023-02-25T05:20:17.005Z,967.32
2023-02-25T05:20:48.936Z,966.91
2023-02-25T05:21:20.749Z,966.91
2023-02-25T05:21:52.658Z,967.02
2023-02-25T05:22:08.875Z,967.02
2023-02-25T05:22:52.631Z,967.02
2023-02-25T05:23:24.696Z,967.02
2023-02-25T05:23:56.447Z,967.22
2023-02-25T05:24:28.505Z,967.22
2023-02-25T05:25:00.927Z,967.22
2023-02-25T05:25:32.670Z,967.22
2023-02-25T05:26:04.680Z,966.91
2023-02-25T05:26:36.392Z,966.91
2023-02-25T05:27:08.444Z,967.22
2023-02-25T05:27:40.460Z,967.22
2023-02-25T05:28:12.340Z,967.32
2023-02-25T05:28:44.255Z,967.12
2023-02-25T05:29:16.273Z,967.12
2023-02-25T05:29:48.439Z,967.22
2023-02-25T05:30:20.796Z,967.22
2023-02-25T05:30:52.451Z,967.22
2023-02-25T05:31:24.377Z,967.22
2023-02-25T05:31:56.562Z,967.42
2023-02-25T05:32:28.268Z,967.42
2023-02-25T05:33:00.318Z,967.22
2023-02-25T05:33:32.148Z,967.22
2023-02-25T05:34:04.664Z,967.02
2023-02-25T05:34:35.896Z,967.02
2023-02-25T05:34:52.251Z,967.22
2023-02-25T05:35:36.308Z,967.22
2023-02-25T05:36:08.140Z,967.12
2023-02-25T05:36:40.291Z,967.12
2023-02-25T05:37:12.115Z,967.02
2023-02-25T05:37:43.813Z,967.22
2023-02-25T05:38:16.003Z,967.22
2023-02-25T05:38:48.145Z,967.02
2023-02-25T05:39:19.882Z,967.02
2023-02-25T05:39:52.359Z,966.91
2023-02-25T05:40:24.094Z,966.91
2023-02-25T05:40:55.910Z,967.12
2023-02-25T05:41:27.728Z,967.12
2023-02-25T05:41:59.737Z,967.12
2023-02-25T05:42:31.965Z,967.12
2023-02-25T05:43:04.463Z,967.12
2023-02-25T05:43:35.643Z,967.12
2023-02-25T05:43:52.186Z,967.32
2023-02-25T05:44:23.695Z,967.32
2023-02-25T05:44:39.906Z,967.32
2023-02-25T05:45:13.073Z,967.12
2023-02-25T05:45:43.514Z,967.12
2023-02-25T05:46:15.740Z,967.12
2023-02-25T05:46:47.856Z,967.22
2023-02-25T05:47:19.803Z,967.22
2023-02-25T05:47:51.629Z,967.22
2023-02-25T05:48:07.594Z,967.22
2023-02-25T05:48:39.752Z,967.22
2023-02-25T05:49:23.446Z,967.12
2023-02-25T05:49:55.593Z,967.22
2023-02-25T05:50:27.664Z,967.22
2023-02-25T05:50:59.400Z,967.12
2023-02-25T05:51:31.478Z,967.12
2023-02-25T05:52:04.109Z,967.02
2023-02-25T05:52:35.228Z,967.02
2023-02-25T05:52:51.646Z,967.02
2023-02-25T05:53:35.277Z,967.02
2023-02-25T05:54:07.387Z,967.12
2023-02-25T05:54:39.335Z,967.12
2023-02-25T05:55:11.488Z,967.32
2023-02-25T05:55:43.181Z,967.22
2023-02-25T05:56:15.260Z,967.22
2023-02-25T05:56:47.119Z,967.32
2023-02-25T05:57:19.125Z,967.32
2023-02-25T05:57:51.078Z,967.22
2023-02-25T05:58:07.205Z,967.22
2023-02-25T05:58:51.346Z,967.32
2023-02-25T05:59:23.304Z,967.32
2023-02-25T05:59:54.968Z,967.42
2023-02-25T06:00:27.308Z,967.42
2023-02-25T06:00:58.990Z,967.22
2023-02-25T06:01:31.352Z,967.22
2023-02-25T06:02:04.034Z,967.32
2023-02-25T06:02:34.866Z,967.32
2023-02-25T06:03:06.967Z,967.52
2023-02-25T06:03:39.005Z,967.52
2023-02-25T06:04:10.800Z,967.42
2023-02-25T06:04:42.800Z,967.32
2023-02-25T06:05:15.134Z,967.32
2023-02-25T06:05:47.906Z,967.32
2023-02-25T06:06:18.766Z,967.32
2023-02-25T06:06:50.740Z,967.22
2023-02-25T06:07:06.801Z,967.22
2023-02-25T06:07:38.621Z,967.22
2023-02-25T06:08:22.715Z,967.32
2023-02-25T06:08:54.704Z,967.22
2023-02-25T06:09:26.581Z,967.22
2023-02-25T06:09:58.653Z,967.22
2023-02-25T06:10:30.880Z,967.22
2023-02-25T06:11:02.886Z,967.22
2023-02-25T06:11:34.549Z,967.22
2023-02-25T06:11:50.856Z,967.22
2023-02-25T06:12:34.740Z,967.22
2023-02-25T06:13:06.689Z,967.42
2023-02-25T06:13:38.329Z,967.42
2023-02-25T06:14:10.798Z,967.32
2023-02-25T06:14:42.742Z,967.42
2023-02-25T06:15:16.393Z,967.42
2023-02-25T06:15:46.470Z,967.52
2023-02-25T06:16:18.428Z,967.52
2023-02-25T06:16:50.476Z,967.42
2023-02-25T06:17:22.781Z,967.42
2023-02-25T06:17:54.328Z,967.52
2023-02-25T06:18:26.289Z,967.52
2023-02-25T06:18:58.362Z,967.62
2023-02-25T06:19:30.445Z,967.62
2023-02-25T06:20:02.931Z,967.52
2023-02-25T06:20:34.209Z,967.52
2023-02-25T06:20:50.713Z,967.32
2023-02-25T06:21:22.334Z,967.32
2023-02-25T06:21:38.245Z,967.32
2023-02-25T06:22:10.098Z,967.62
2023-02-25T06:22:42.174Z,967.73
2023-02-25T06:23:14.084Z,967.73
2023-02-25T06:23:46.184Z,967.42
2023-02-25T06:24:17.974Z,967.42
2023-02-25T06:24:49.974Z,967.62
2023-02-25T06:25:06.673Z,967.62
2023-02-25T06:25:37.992Z,967.62
2023-02-25T06:26:22.719Z,967.42
2023-02-25T06:26:53.720Z,967.32
2023-02-25T06:27:25.804Z,967.32
2023-02-25T06:27:57.833Z,967.42
2023-02-25T06:28:30.028Z,967.42
2023-02-25T06:29:02.406Z,967.52
2023-02-25T06:29:33.799Z,967.52
2023-02-25T06:30:07.436Z,967.52
2023-02-25T06:30:38.127Z,967.52
2023-02-25T06:31:10.052Z,967.62
2023-02-25T06:31:42.031Z,967.52
2023-02-25T06:32:13.998Z,967.52
2023-02-25T06:32:45.998Z,967.62
2023-02-25T06:33:17.762Z,967.62